Time;durP1;ratioP1;P1;durP2;ratioP2;P2;SDS_P1;SDS_P2;PMS_P1;PMS_P2;Temp;Humidity;BMP_temperature;BMP_pressure;BME280_temperature;BME280_humidity;BME280_pressure;Samples;Min_cycle;Max_cycle;Signal;HPM_P1;HPM_P2
2022/07/12 04:02:37;;;;;;;3.90;3.10;;;12.60;96.30;;;;;;5023230;23;20500;-76
2022/07/12 04:05:05;;;;;;;3.77;3.47;;;12.60;96.30;;;;;;4977661;28;20463;-76
2022/07/12 04:07:30;;;;;;;3.90;3.53;;;12.60;96.30;;;;;;4993637;28;20426;-76
2022/07/12 04:09:56;;;;;;;9.33;3.70;;;12.70;96.30;;;;;;4994432;28;20416;-76
2022/07/12 04:12:21;;;;;;;3.87;2.80;;;12.70;96.30;;;;;;4975716;28;20205;-76
2022/07/12 04:14:47;;;;;;;8.03;3.80;;;12.80;96.30;;;;;;4995765;28;20174;-74
2022/07/12 04:17:12;;;;;;;3.47;3.17;;;12.80;96.30;;;;;;4995527;28;20268;-74
2022/07/12 04:19:38;;;;;;;8.00;3.80;;;13.00;96.30;;;;;;4986673;28;20186;-77
2022/07/12 04:22:03;;;;;;;5.30;3.60;;;13.20;96.30;;;;;;4975067;28;20210;-77
2022/07/12 04:24:29;;;;;;;4.00;3.70;;;13.30;96.30;;;;;;4958116;28;20247;-77
2022/07/12 04:26:54;;;;;;;4.53;3.90;;;13.40;96.30;;;;;;4975626;28;20185;-76
2022/07/12 04:29:20;;;;;;;3.80;3.50;;;13.60;96.30;;;;;;4993090;28;20181;-76
2022/07/12 04:31:46;;;;;;;4.93;3.63;;;13.70;96.30;;;;;;4994173;28;20198;-76
2022/07/12 04:34:11;;;;;;;4.00;3.60;;;14.00;96.30;;;;;;4994199;28;20185;-76
2022/07/12 04:36:37;;;;;;;4.40;4.00;;;14.40;96.30;;;;;;4993983;28;20216;-76
2022/07/12 04:39:03;;;;;;;3.77;3.47;;;15.20;96.30;;;;;;4993114;28;20186;-76
2022/07/12 04:41:29;;;;;;;5.43;3.70;;;15.70;96.30;;;;;;4993079;28;20288;-76
2022/07/12 04:43:54;;;;;;;5.80;3.77;;;15.50;96.30;;;;;;4993665;28;20567;-76
2022/07/12 04:46:20;;;;;;;7.93;3.03;;;15.40;96.30;;;;;;4993469;28;20205;-76
2022/07/12 04:48:45;;;;;;;4.47;3.80;;;15.10;96.30;;;;;;4992375;28;20869;-76
2022/07/12 04:51:11;;;;;;;4.00;3.60;;;14.80;96.30;;;;;;4993438;28;20673;-76
2022/07/12 04:53:36;;;;;;;3.93;3.33;;;14.70;96.30;;;;;;4993138;28;20181;-77
2022/07/12 04:56:02;;;;;;;4.30;3.37;;;14.80;96.30;;;;;;4993894;28;20176;-77
2022/07/12 04:58:28;;;;;;;3.43;3.23;;;15.00;96.30;;;;;;4993045;28;20178;-77
2022/07/12 05:00:53;;;;;;;3.60;3.30;;;14.90;96.30;;;;;;4993616;28;20348;-76
2022/07/12 05:03:19;;;;;;;7.70;3.70;;;14.80;96.30;;;;;;4993491;28;20221;-76
2022/07/12 05:05:44;;;;;;;4.30;3.40;;;14.80;96.30;;;;;;4993715;28;20174;-77
2022/07/12 05:08:09;;;;;;;4.67;4.27;;;15.10;96.30;;;;;;4992763;28;20180;-77
2022/07/12 05:10:35;;;;;;;4.10;3.80;;;15.80;96.30;;;;;;4979879;28;20540;-77
2022/07/12 05:13:01;;;;;;;3.93;3.63;;;16.40;96.30;;;;;;4974184;28;20178;-77
2022/07/12 05:15:26;;;;;;;4.63;3.43;;;16.50;96.30;;;;;;4974044;28;20181;-77
2022/07/12 05:17:52;;;;;;;4.17;3.73;;;17.30;96.30;;;;;;4986801;28;20212;-77
2022/07/12 05:20:19;;;;;;;7.00;4.07;;;18.60;96.30;;;;;;4993109;28;20173;-77
2022/07/12 05:22:44;;;;;;;3.43;3.13;;;19.50;96.30;;;;;;4980816;28;20540;-77
2022/07/12 05:25:10;;;;;;;3.37;3.17;;;19.10;96.30;;;;;;4993302;28;20864;-77
2022/07/12 05:27:35;;;;;;;4.97;3.93;;;18.70;96.30;;;;;;4990982;28;20708;-76
2022/07/12 05:30:05;;;;;;;4.10;3.80;;;18.30;96.30;;;;;;4992921;28;20814;-76
2022/07/12 05:32:31;;;;;;;4.83;4.33;;;18.00;96.30;;;;;;4993023;28;20197;-76
2022/07/12 05:34:56;;;;;;;5.03;3.83;;;17.40;96.30;;;;;;4993122;28;20443;-76
2022/07/12 05:37:25;;;;;;;5.03;4.23;;;16.90;96.30;;;;;;4993120;28;20928;-76
2022/07/12 05:39:51;;;;;;;4.90;4.20;;;16.70;96.30;;;;;;4987893;28;20225;-76
2022/07/12 05:42:16;;;;;;;6.83;4.10;;;16.60;96.30;;;;;;4973527;28;20461;-76
2022/07/12 05:44:42;;;;;;;5.10;4.50;;;16.50;96.30;;;;;;4973486;28;20410;-77
2022/07/12 05:47:07;;;;;;;8.90;5.40;;;16.50;96.30;;;;;;4973558;28;20269;-76
2022/07/12 05:49:33;;;;;;;5.90;4.87;;;16.60;96.30;;;;;;4973377;28;20552;-77
2022/07/12 05:54:42;;;;;;;5.87;5.37;;;16.90;96.30;;;;;;4973573;28;20270;-77
2022/07/12 05:57:08;;;;;;;7.23;5.30;;;16.90;96.30;;;;;;4973425;28;20537;-77
2022/07/12 05:59:35;;;;;;;5.50;5.07;;;17.10;96.30;;;;;;4955763;28;20189;-77
2022/07/12 06:02:00;;;;;;;6.50;4.90;;;17.10;96.30;;;;;;4973137;28;20214;-77
2022/07/12 06:04:26;;;;;;;7.00;5.33;;;16.80;96.30;;;;;;4973340;28;20425;-76
2022/07/12 06:06:51;;;;;;;4.70;4.30;;;16.70;96.30;;;;;;4983414;28;20185;-76
2022/07/12 06:09:17;;;;;;;7.40;4.73;;;16.70;96.30;;;;;;4991941;28;20534;-76
2022/07/12 06:11:42;;;;;;;5.50;5.00;;;17.00;96.30;;;;;;4992590;28;20197;-76
2022/07/12 06:14:08;;;;;;;4.70;4.30;;;18.60;96.30;;;;;;4991123;28;20255;-76
2022/07/12 06:16:33;;;;;;;4.67;4.27;;;19.80;96.30;;;;;;4991541;28;20181;-76
2022/07/12 06:18:59;;;;;;;4.47;4.10;;;20.20;96.30;;;;;;4992147;28;20178;-76
2022/07/12 06:21:24;;;;;;;7.00;4.13;;;19.90;96.30;;;;;;4978922;28;20279;-76
2022/07/12 06:23:50;;;;;;;4.53;4.10;;;19.40;96.30;;;;;;4991224;28;20181;-76
2022/07/12 06:26:15;;;;;;;4.70;3.97;;;19.40;96.30;;;;;;4992246;28;20177;-76
2022/07/12 06:28:41;;;;;;;6.63;3.77;;;20.00;96.30;;;;;;4992145;28;20220;-76
2022/07/12 06:31:06;;;;;;;3.77;3.43;;;20.10;96.30;;;;;;4992395;28;20657;-76
2022/07/12 06:33:32;;;;;;;6.17;4.27;;;19.50;96.30;;;;;;4994044;28;20177;-76
2022/07/12 06:35:57;;;;;;;4.17;3.27;;;18.50;96.30;;;;;;4979053;28;20179;-76
2022/07/12 06:38:23;;;;;;;4.83;4.33;;;18.10;96.30;;;;;;4996135;28;20243;-76
2022/07/12 06:40:48;;;;;;;8.70;4.20;;;18.30;96.30;;;;;;4996184;28;20201;-76
2022/07/12 06:43:14;;;;;;;4.83;4.43;;;18.60;96.30;;;;;;4978556;28;20201;-76
2022/07/12 06:45:40;;;;;;;10.57;4.53;;;19.20;96.30;;;;;;4996271;28;20320;-76
2022/07/12 06:48:05;;;;;;;5.00;3.50;;;19.80;96.30;;;;;;4995985;28;20744;-76
2022/07/12 06:50:31;;;;;;;4.83;3.93;;;20.40;96.30;;;;;;4996113;28;20411;-76
2022/07/12 06:52:56;;;;;;;4.97;4.10;;;20.10;96.30;;;;;;4995960;28;20176;-76
2022/07/12 06:55:22;;;;;;;3.23;2.90;;;21.20;96.30;;;;;;4978395;28;20526;-76
2022/07/12 06:57:48;;;;;;;3.50;3.13;;;22.70;96.30;;;;;;4995729;28;20173;-76
2022/07/12 07:00:13;;;;;;;3.50;3.20;;;24.40;96.30;;;;;;4995970;28;20231;-76
2022/07/12 07:02:39;;;;;;;5.70;3.20;;;25.20;93.90;;;;;;4995640;28;20205;-76
2022/07/12 07:05:06;;;;;;;4.17;3.07;;;24.90;89.60;;;;;;4978474;28;20169;-77
2022/07/12 07:07:31;;;;;;;3.73;3.30;;;24.10;92.10;;;;;;4995597;28;20439;-77
2022/07/12 07:09:56;;;;;;;4.27;3.00;;;24.40;92.30;;;;;;4995832;28;20416;-77
2022/07/12 07:12:22;;;;;;;6.27;3.03;;;25.50;90.20;;;;;;4995568;28;20607;-77
2022/07/12 07:14:48;;;;;;;4.50;3.07;;;26.10;87.90;;;;;;4995833;28;20173;-77
2022/07/12 07:17:16;;;;;;;3.17;2.87;;;26.70;86.90;;;;;;4995630;28;20185;-77
2022/07/12 07:19:42;;;;;;;3.43;3.03;;;26.40;87.60;;;;;;4995541;28;21018;-77
2022/07/12 07:22:07;;;;;;;3.20;2.90;;;26.40;89.10;;;;;;4995610;28;20542;-77
2022/07/12 07:24:33;;;;;;;2.50;2.30;;;27.30;87.50;;;;;;4995169;28;20798;-77
2022/07/12 07:26:58;;;;;;;6.03;2.60;;;27.20;85.80;;;;;;4995883;28;20189;-75
2022/07/12 07:32:08;;;;;;;2.40;2.20;;;24.00;91.30;;;;;;4992078;28;20203;-74
2022/07/12 07:34:33;;;;;;;2.83;2.47;;;24.70;94.30;;;;;;4995601;28;20412;-75
2022/07/12 07:36:59;;;;;;;5.07;3.33;;;25.50;88.90;;;;;;4995589;28;20299;-75
2022/07/12 07:39:24;;;;;;;3.73;2.87;;;26.00;84.50;;;;;;4976073;28;20707;-75
2022/07/12 07:41:50;;;;;;;3.90;2.70;;;26.70;86.60;;;;;;4975760;28;20209;-75
2022/07/12 07:44:15;;;;;;;2.80;2.30;;;26.60;85.90;;;;;;4975731;28;20185;-75
2022/07/12 07:46:40;;;;;;;5.70;3.00;;;27.10;82.80;;;;;;4975516;28;20193;-75
2022/07/12 07:49:06;;;;;;;2.67;2.47;;;28.00;85.40;;;;;;4958272;28;20173;-75
2022/07/12 07:51:31;;;;;;;6.33;2.40;;;27.70;81.80;;;;;;4975614;28;20206;-75
2022/07/12 07:53:57;;;;;;;2.80;2.60;;;27.90;83.60;;;;;;4975581;28;20205;-75
2022/07/12 07:56:22;;;;;;;3.60;2.47;;;26.70;83.80;;;;;;4976650;28;20177;-75
2022/07/12 07:58:48;;;;;;;2.80;2.60;;;26.10;84.40;;;;;;4994889;28;20205;-75
2022/07/12 08:01:13;;;;;;;3.33;2.50;;;25.90;85.30;;;;;;4994823;28;20247;-75
2022/07/12 08:03:39;;;;;;;6.33;2.20;;;26.30;87.80;;;;;;4994991;28;20174;-75
2022/07/12 08:06:05;;;;;;;5.07;2.30;;;26.60;84.10;;;;;;4994962;28;20640;-74
2022/07/12 08:08:30;;;;;;;2.87;2.60;;;25.60;86.90;;;;;;4977164;28;20173;-75
2022/07/12 08:10:56;;;;;;;3.23;2.60;;;26.30;84.50;;;;;;4994835;28;20208;-74
2022/07/12 08:13:22;;;;;;;7.57;2.40;;;26.30;85.60;;;;;;4994804;28;20180;-74
2022/07/12 08:15:48;;;;;;;2.60;2.40;;;26.90;85.90;;;;;;4994645;28;20920;-74
2022/07/12 08:18:13;;;;;;;4.13;2.73;;;27.00;83.00;;;;;;4994510;28;20172;-74
2022/07/12 08:20:39;;;;;;;5.50;2.67;;;25.80;85.10;;;;;;4994622;28;20197;-75
2022/07/12 08:23:04;;;;;;;3.63;2.07;;;24.60;86.20;;;;;;4994508;28;20204;-74
2022/07/12 08:25:30;;;;;;;5.03;2.33;;;23.40;89.00;;;;;;4994571;28;20263;-75
2022/07/12 08:27:55;;;;;;;4.87;2.57;;;23.80;91.10;;;;;;4994270;28;20237;-74
2022/07/12 08:30:21;;;;;;;5.23;2.83;;;24.70;88.80;;;;;;4994582;28;20173;-75
2022/07/12 08:32:47;;;;;;;2.73;2.47;;;25.50;84.10;;;;;;4994560;28;20602;-74
2022/07/12 08:35:14;;;;;;;4.90;2.40;;;25.00;91.40;;;;;;4994606;28;20181;-74
2022/07/12 08:37:40;;;;;;;4.63;2.57;;;25.10;85.20;;;;;;4993893;28;20177;-74
2022/07/12 08:40:06;;;;;;;6.20;2.00;;;24.10;86.50;;;;;;4992869;28;20441;-75
2022/07/12 08:42:32;;;;;;;4.47;2.57;;;25.00;90.10;;;;;;4974715;28;20277;-74
2022/07/12 08:44:58;;;;;;;3.73;2.53;;;25.70;85.20;;;;;;4974802;28;20457;-74
2022/07/12 08:47:24;;;;;;;4.87;2.80;;;24.60;87.10;;;;;;4974360;28;20494;-75
2022/07/12 08:50:12;;;;;;;4.10;2.73;;;23.20;88.70;;;;;;4993246;28;20209;-74
2022/07/12 08:52:43;;;;;;;3.00;2.70;;;22.20;93.10;;;;;;4994406;28;20428;-74
2022/07/12 08:55:31;;;;;;;2.63;2.33;;;23.50;93.20;;;;;;4994681;28;20409;-74
2022/07/12 08:57:59;;;;;;;4.17;1.80;;;23.60;87.80;;;;;;4976386;28;20415;-74
2022/07/12 09:00:26;;;;;;;3.73;2.57;;;23.30;89.70;;;;;;4994641;28;20420;-76
2022/07/12 09:02:53;;;;;;;6.00;2.57;;;23.10;89.70;;;;;;4993882;28;20511;-76
2022/07/12 09:05:24;;;;;;;2.60;1.87;;;22.40;89.30;;;;;;4993933;28;20412;-76
2022/07/12 09:07:50;;;;;;;2.90;2.03;;;22.50;94.40;;;;;;4993504;28;20416;-76
2022/07/12 09:10:16;;;;;;;8.60;2.90;;;23.50;89.10;;;;;;4982749;28;20417;-76
2022/07/12 09:12:43;;;;;;;5.13;2.40;;;23.50;88.00;;;;;;4974273;28;20441;-76
2022/07/12 09:15:19;;;;;;;5.10;2.17;;;23.20;94.90;;;;;;4974047;28;20509;-76
2022/07/12 09:17:57;;;;;;;2.63;2.00;;;22.90;89.80;;;;;;5069395;28;20512;-76
2022/07/12 09:20:30;;;;;;;4.27;2.17;;;21.80;90.50;;;;;;5069373;28;20406;-76
2022/07/12 09:22:58;;;;;;;5.00;1.90;;;22.20;95.40;;;;;;5069418;28;20962;-75
2022/07/12 09:25:24;;;;;;;3.33;2.07;;;23.30;91.40;;;;;;5069337;28;20389;-75
2022/07/12 09:27:55;;;;;;;3.03;1.80;;;24.10;88.90;;;;;;5069060;28;20432;-75
2022/07/12 09:30:23;;;;;;;2.10;1.50;;;23.30;89.80;;;;;;5069069;28;20509;-75
2022/07/12 09:36:07;;;;;;;3.93;1.90;;;24.60;88.40;;;;;;5069386;28;20455;-75
2022/07/12 09:38:53;;;;;;;2.87;1.60;;;25.00;86.30;;;;;;5067529;28;20413;-76
2022/07/12 09:41:20;;;;;;;3.20;1.73;;;25.00;84.40;;;;;;5086366;28;20436;-76
2022/07/12 09:43:47;;;;;;;1.90;1.57;;;25.10;84.40;;;;;;5089140;28;20812;-76
2022/07/12 09:46:14;;;;;;;2.40;1.50;;;24.80;86.50;;;;;;5089165;28;20419;-76
2022/07/12 09:48:40;;;;;;;5.83;1.13;;;24.00;84.60;;;;;;5088698;28;20419;-76
2022/07/12 09:51:08;;;;;;;2.73;1.20;;;23.90;83.70;;;;;;5069859;28;20444;-77
2022/07/12 09:53:44;;;;;;;3.63;1.67;;;23.10;83.60;;;;;;5068603;28;20413;-76
2022/07/12 09:56:15;;;;;;;2.67;1.30;;;22.90;87.80;;;;;;5068589;28;20448;-76
2022/07/12 09:58:55;;;;;;;2.50;1.50;;;23.40;87.60;;;;;;5068454;28;20437;-77
2022/07/12 10:01:23;;;;;;;3.07;1.50;;;24.10;87.60;;;;;;5068463;28;20924;-76
2022/07/12 10:03:50;;;;;;;1.30;1.17;;;23.70;86.50;;;;;;5063405;28;20499;-76
2022/07/12 10:06:23;;;;;;;1.60;1.10;;;23.20;87.60;;;;;;5063776;28;20426;-76
2022/07/12 10:08:49;;;;;;;3.50;1.20;;;23.70;91.20;;;;;;5058952;28;20487;-77
2022/07/12 10:11:14;;;;;;;1.90;1.00;;;24.70;87.90;;;;;;5087274;28;20515;-76
2022/07/12 10:13:40;;;;;;;3.03;0.90;;;25.40;86.20;;;;;;5089051;28;20495;-75
2022/07/12 10:16:10;;;;;;;1.57;1.13;;;26.10;84.30;;;;;;5088978;28;20230;-75
2022/07/12 10:18:36;;;;;;;3.40;1.23;;;26.10;82.70;;;;;;5072010;28;20217;-76
2022/07/12 10:21:18;;;;;;;5.43;1.10;;;25.50;81.70;;;;;;5067949;28;20421;-76
2022/07/12 10:23:44;;;;;;;1.30;1.20;;;25.10;81.50;;;;;;5087617;28;20181;-76
2022/07/12 10:26:16;;;;;;;2.17;1.00;;;24.80;83.20;;;;;;5074078;28;20410;-76
2022/07/12 10:29:09;;;;;;;1.63;1.10;;;24.00;84.60;;;;;;5037616;28;20679;-75
2022/07/12 10:31:37;;;;;;;4.20;1.23;;;24.60;87.10;;;;;;5037745;28;20433;-76
2022/07/12 10:34:10;;;;;;;2.63;1.30;;;24.90;79.80;;;;;;5054757;28;20410;-76
2022/07/12 10:36:54;;;;;;;5.63;1.47;;;24.50;86.80;;;;;;5054336;28;20860;-76
2022/07/12 10:39:20;;;;;;;2.30;1.07;;;24.30;85.60;;;;;;5055128;28;20971;-76
2022/07/12 10:42:13;;;;;;;1.90;1.33;;;23.50;84.60;;;;;;5071971;28;20474;-76
2022/07/12 10:44:44;;;;;;;2.50;0.97;;;22.30;88.50;;;;;;5054410;28;20394;-76
2022/07/12 10:47:12;;;;;;;1.53;1.00;;;21.90;88.60;;;;;;5054343;28;20437;-75
2022/07/12 10:49:46;;;;;;;1.80;1.07;;;22.00;92.10;;;;;;5054135;28;20487;-76
2022/07/12 10:52:11;;;;;;;3.13;1.03;;;23.40;93.70;;;;;;5054294;28;20422;-76
2022/07/12 10:54:55;;;;;;;3.57;1.10;;;24.50;83.40;;;;;;5054180;28;20410;-76
2022/07/12 10:57:54;;;;;;;1.87;0.90;;;23.70;84.70;;;;;;5054010;28;20222;-76
2022/07/12 11:00:19;;;;;;;1.90;0.90;;;22.60;87.70;;;;;;5041813;28;20418;-76
2022/07/12 11:02:45;;;;;;;1.73;0.80;;;21.60;90.00;;;;;;5054224;28;20753;-76
2022/07/12 11:05:11;;;;;;;2.20;1.13;;;21.70;92.30;;;;;;5054063;28;20218;-76
2022/07/12 11:07:37;;;;;;;2.60;0.90;;;22.20;88.80;;;;;;5032967;28;20183;-75
2022/07/12 11:10:03;;;;;;;5.33;0.90;;;22.20;88.90;;;;;;5052889;28;20183;-75
2022/07/12 11:12:29;;;;;;;3.07;1.00;;;21.80;89.10;;;;;;5073839;28;20796;-76
2022/07/12 11:14:58;;;;;;;2.80;0.90;;;21.70;92.90;;;;;;5074007;28;20448;-76
2022/07/12 11:17:27;;;;;;;2.27;0.90;;;21.70;89.10;;;;;;5073664;28;20563;-76
2022/07/12 11:20:13;;;;;;;2.17;0.90;;;22.30;87.20;;;;;;5073883;28;20500;-76
2022/07/12 11:22:40;;;;;;;2.03;1.00;;;23.50;86.50;;;;;;5058912;28;20426;-75
2022/07/12 11:25:11;;;;;;;1.97;0.90;;;23.80;86.50;;;;;;5034120;28;20935;-76
2022/07/12 11:27:38;;;;;;;3.53;1.07;;;23.90;83.30;;;;;;5032317;28;20914;-75
2022/07/12 11:30:05;;;;;;;2.30;0.70;;;22.70;85.30;;;;;;5033789;28;20402;-76
2022/07/12 11:32:39;;;;;;;2.17;0.90;;;23.00;89.10;;;;;;5033510;28;20435;-76
2022/07/12 11:35:20;;;;;;;1.87;0.87;;;23.80;86.70;;;;;;5033589;28;20398;-76
2022/07/12 11:37:56;;;;;;;3.37;1.00;;;24.60;84.50;;;;;;5033208;28;20544;-76
2022/07/12 11:40:29;;;;;;;3.37;1.00;;;25.10;84.90;;;;;;5051092;28;20421;-76
2022/07/12 11:42:58;;;;;;;1.97;0.80;;;24.00;85.40;;;;;;5072096;28;20409;-76
2022/07/12 11:45:24;;;;;;;2.30;1.10;;;24.20;88.30;;;;;;5073313;28;20470;-76
2022/07/12 11:47:49;;;;;;;2.37;1.07;;;25.20;86.90;;;;;;5072962;28;20414;-76
2022/07/12 11:50:18;;;;;;;6.17;1.30;;;25.70;86.30;;;;;;5073206;28;20412;-76
2022/07/12 11:52:44;;;;;;;2.20;0.80;;;26.30;81.00;;;;;;5073039;28;20268;-76
2022/07/12 11:55:09;;;;;;;2.47;1.30;;;25.30;78.40;;;;;;5073457;28;20459;-76
2022/07/12 11:57:35;;;;;;;2.90;1.00;;;24.00;81.90;;;;;;5072973;28;20198;-76
2022/07/12 12:00:21;;;;;;;1.73;0.80;;;23.70;83.80;;;;;;5073163;28;20619;-76
2022/07/12 12:02:51;;;;;;;2.00;0.80;;;24.50;83.80;;;;;;5071740;28;20175;-76
2022/07/12 12:05:17;;;;;;;1.63;0.73;;;24.90;81.20;;;;;;5072996;28;20499;-76
2022/07/12 12:07:42;;;;;;;1.93;1.00;;;24.90;78.90;;;;;;5072724;28;20905;-76
2022/07/12 12:10:15;;;;;;;1.13;0.80;;;25.10;79.80;;;;;;5057696;28;20179;-76
2022/07/12 12:12:46;;;;;;;2.33;0.97;;;24.60;82.30;;;;;;5032781;28;20223;-76
2022/07/12 12:15:16;;;;;;;1.40;0.90;;;23.80;81.70;;;;;;5035218;28;20419;-76
2022/07/12 12:17:55;;;;;;;5.70;0.97;;;22.80;84.60;;;;;;5040163;28;20515;-75
2022/07/12 12:20:23;;;;;;;3.77;0.90;;;22.20;86.90;;;;;;5049001;28;20421;-76
2022/07/12 12:22:53;;;;;;;4.43;1.03;;;22.80;93.80;;;;;;5051062;28;20406;-76
2022/07/12 12:25:19;;;;;;;2.37;0.80;;;23.90;86.70;;;;;;5052639;28;20409;-76
2022/07/12 12:27:49;;;;;;;1.53;0.90;;;24.80;82.50;;;;;;5052190;28;20483;-76
2022/07/12 12:30:20;;;;;;;5.20;1.03;;;25.10;81.40;;;;;;5052613;28;20433;-76
2022/07/12 12:32:54;;;;;;;3.63;0.87;;;24.50;78.70;;;;;;5054025;28;20778;-76
2022/07/12 12:35:22;;;;;;;1.83;1.00;;;23.30;83.60;;;;;;5053761;28;20417;-77
2022/07/12 12:37:49;;;;;;;7.60;1.20;;;24.20;85.20;;;;;;5052592;28;20457;-76
2022/07/12 12:40:19;;;;;;;3.73;0.90;;;24.90;81.90;;;;;;5060341;28;20780;-77
2022/07/12 12:42:45;;;;;;;3.23;0.70;;;24.60;80.10;;;;;;5071689;28;20421;-77
2022/07/12 12:45:23;;;;;;;1.40;1.00;;;24.70;81.10;;;;;;5072101;28;20491;-76
2022/07/12 12:47:56;;;;;;;1.73;0.90;;;24.30;85.00;;;;;;5071830;28;20444;-76
2022/07/12 12:50:42;;;;;;;9.60;0.90;;;24.70;81.60;;;;;;5071803;28;20415;-77
2022/07/12 12:53:10;;;;;;;1.53;0.60;;;24.40;77.30;;;;;;5072247;28;20970;-77
2022/07/12 12:55:36;;;;;;;1.70;0.80;;;23.40;79.80;;;;;;5070728;28;20451;-76
2022/07/12 12:58:02;;;;;;;1.23;0.87;;;23.00;83.10;;;;;;5071854;28;20808;-76
2022/07/12 13:00:29;;;;;;;7.63;0.80;;;23.70;83.50;;;;;;5071867;28;20437;-76
2022/07/12 13:02:57;;;;;;;2.90;0.90;;;24.30;79.20;;;;;;5071973;28;20254;-77
2022/07/12 13:05:23;;;;;;;2.37;0.90;;;24.90;82.10;;;;;;5070815;28;20416;-76
2022/07/12 13:07:48;;;;;;;1.47;0.80;;;25.40;81.20;;;;;;5071753;28;21049;-77
2022/07/12 13:10:14;;;;;;;3.77;0.80;;;25.90;79.20;;;;;;5061020;28;20221;-77
2022/07/12 13:12:39;;;;;;;1.73;0.83;;;25.80;77.90;;;;;;5051646;28;20245;-76
2022/07/12 13:15:07;;;;;;;2.00;0.97;;;25.80;80.50;;;;;;5051795;28;20507;-77
2022/07/12 13:17:33;;;;;;;2.33;1.20;;;25.50;78.80;;;;;;5051323;28;20203;-77
2022/07/12 13:19:58;;;;;;;4.10;0.90;;;25.30;78.40;;;;;;5051474;28;20984;-76
2022/07/12 13:22:24;;;;;;;2.33;0.87;;;25.80;80.40;;;;;;5051838;28;20199;-76
2022/07/12 13:24:49;;;;;;;2.30;0.80;;;25.40;75.70;;;;;;5051722;28;20221;-77
2022/07/12 13:27:15;;;;;;;2.40;0.80;;;24.40;79.60;;;;;;5051636;28;20172;-76
2022/07/12 13:29:40;;;;;;;5.13;0.83;;;23.80;80.00;;;;;;5051419;28;20729;-77
2022/07/12 13:32:06;;;;;;;2.43;0.90;;;24.50;82.60;;;;;;5036488;28;20204;-76
2022/07/12 13:34:32;;;;;;;2.57;0.90;;;25.10;78.60;;;;;;5044355;28;20190;-77
2022/07/12 13:36:57;;;;;;;3.67;0.77;;;24.40;78.60;;;;;;5050215;28;20784;-76
2022/07/12 13:42:07;;;;;;;1.77;0.90;;;24.60;81.20;;;;;;5040217;28;20248;-77
2022/07/12 13:44:32;;;;;;;1.87;0.87;;;25.30;77.50;;;;;;5041703;28;20407;-77
2022/07/12 13:46:58;;;;;;;2.40;0.93;;;25.20;76.60;;;;;;5048664;28;20650;-76
2022/07/12 13:49:24;;;;;;;2.70;0.80;;;24.30;77.80;;;;;;5052405;28;20176;-77
2022/07/12 13:51:49;;;;;;;5.60;1.07;;;24.30;82.00;;;;;;5050873;28;20543;-76
2022/07/12 13:54:15;;;;;;;1.20;0.80;;;24.80;78.70;;;;;;5051662;28;20444;-76
2022/07/12 13:56:41;;;;;;;1.00;0.70;;;25.40;78.40;;;;;;5051796;28;20226;-77
2022/07/12 13:59:06;;;;;;;6.67;0.87;;;25.70;81.60;;;;;;5051415;28;20183;-76
2022/07/12 14:01:32;;;;;;;3.73;0.93;;;25.60;80.00;;;;;;5050298;28;20188;-76
2022/07/12 14:03:57;;;;;;;1.83;0.80;;;24.80;76.80;;;;;;5053788;28;20283;-77
2022/07/12 14:06:23;;;;;;;1.27;0.80;;;25.00;81.40;;;;;;5055984;28;20171;-76
2022/07/12 14:08:50;;;;;;;1.80;1.10;;;24.80;79.60;;;;;;5055224;28;20254;-76
2022/07/12 14:11:16;;;;;;;2.33;0.80;;;25.10;80.90;;;;;;5075402;28;20868;-74
2022/07/12 14:13:41;;;;;;;5.13;0.80;;;25.80;77.30;;;;;;5075223;28;20499;-74
2022/07/12 14:16:07;;;;;;;2.10;0.80;;;25.60;77.40;;;;;;5074967;28;20249;-74
2022/07/12 14:18:33;;;;;;;1.97;0.90;;;24.70;75.50;;;;;;5074758;28;20167;-77
2022/07/12 14:20:58;;;;;;;1.10;0.73;;;24.10;77.90;;;;;;5060777;28;20566;-77
2022/07/12 14:23:24;;;;;;;1.40;0.90;;;23.70;80.10;;;;;;5054932;28;20175;-75
2022/07/12 14:25:49;;;;;;;11.00;1.87;;;23.70;82.40;;;;;;5054942;28;20181;-74
2022/07/12 14:28:15;;;;;;;5.20;0.80;;;24.50;78.20;;;;;;5054795;28;20176;-77
2022/07/12 14:30:40;;;;;;;1.67;0.70;;;25.10;76.70;;;;;;5054820;28;20203;-74
2022/07/12 14:33:06;;;;;;;3.67;0.80;;;25.60;78.30;;;;;;5054660;28;20167;-74
2022/07/12 14:35:31;;;;;;;2.40;0.70;;;25.80;76.30;;;;;;5053379;28;20262;-74
2022/07/12 14:37:57;;;;;;;4.03;1.17;;;25.10;77.20;;;;;;5038812;28;20298;-74
2022/07/12 14:40:22;;;;;;;1.47;0.90;;;25.00;79.90;;;;;;5064053;28;20197;-74
2022/07/12 14:42:48;;;;;;;4.10;0.93;;;25.20;76.50;;;;;;5074552;28;20171;-74
2022/07/12 14:45:14;;;;;;;0.90;0.80;;;25.40;78.20;;;;;;5074519;28;20197;-74
2022/07/12 14:47:39;;;;;;;1.77;0.90;;;25.50;78.40;;;;;;5074044;28;20257;-74
2022/07/12 14:50:07;;;;;;;2.07;0.77;;;25.80;78.10;;;;;;5074368;28;20173;-74
2022/07/12 14:52:32;;;;;;;2.80;0.70;;;26.20;73.00;;;;;;5073960;28;20197;-74
2022/07/12 14:54:58;;;;;;;6.37;1.03;;;26.10;75.90;;;;;;5074295;28;20412;-76
2022/07/12 14:57:23;;;;;;;2.00;0.80;;;25.90;76.80;;;;;;5073976;28;20198;-75
2022/07/12 14:59:49;;;;;;;2.83;1.00;;;25.90;73.80;;;;;;5072811;28;20175;-74
2022/07/12 15:02:14;;;;;;;3.80;0.90;;;26.00;74.40;;;;;;5074034;28;20186;-75
2022/07/12 15:04:40;;;;;;;2.63;0.80;;;26.20;75.60;;;;;;5073989;28;20162;-74
2022/07/12 15:07:05;;;;;;;1.90;0.80;;;26.10;72.90;;;;;;5074064;28;20170;-75
2022/07/12 15:09:31;;;;;;;2.30;0.70;;;26.30;76.60;;;;;;5068444;28;20171;-75
2022/07/12 15:11:57;;;;;;;3.10;0.77;;;25.90;75.50;;;;;;5054137;28;20218;-75
2022/07/12 15:14:22;;;;;;;3.80;0.90;;;25.70;75.00;;;;;;5053925;28;20229;-75
2022/07/12 15:16:48;;;;;;;3.10;1.00;;;25.70;77.40;;;;;;5053817;28;20253;-75
2022/07/12 15:19:15;;;;;;;1.47;1.23;;;25.90;75.80;;;;;;5053701;28;20646;-74
2022/07/12 15:21:40;;;;;;;4.60;0.90;;;26.00;75.20;;;;;;5053796;28;20274;-75
2022/07/12 15:24:06;;;;;;;2.17;1.00;;;26.30;74.30;;;;;;5053669;28;20533;-75
2022/07/12 15:26:31;;;;;;;2.50;0.70;;;26.00;73.40;;;;;;5053803;28;20175;-75
2022/07/12 15:29:01;;;;;;;4.13;0.70;;;25.70;73.40;;;;;;5053506;28;20183;-75
2022/07/12 15:31:26;;;;;;;2.17;0.90;;;25.30;74.00;;;;;;5052224;28;20202;-74
2022/07/12 15:33:52;;;;;;;6.13;0.90;;;25.20;74.80;;;;;;5053626;28;20405;-75
2022/07/12 15:36:17;;;;;;;2.83;0.80;;;25.10;76.40;;;;;;5053567;28;20289;-75
2022/07/12 15:38:44;;;;;;;1.33;0.80;;;25.00;74.70;;;;;;5053261;28;20278;-74
2022/07/12 15:41:11;;;;;;;1.97;0.70;;;25.00;74.70;;;;;;5069323;28;20853;-74
2022/07/12 15:43:39;;;;;;;2.03;0.80;;;24.80;76.40;;;;;;5073435;28;20764;-75
2022/07/12 15:46:09;;;;;;;1.80;0.93;;;24.90;78.80;;;;;;5069518;28;20457;-74
2022/07/12 15:48:35;;;;;;;2.40;0.63;;;25.00;78.50;;;;;;5052727;28;20418;-75
2022/07/12 15:51:01;;;;;;;1.27;0.80;;;24.90;79.20;;;;;;5045976;28;20458;-75
2022/07/12 15:53:30;;;;;;;1.20;0.67;;;25.00;78.00;;;;;;5047358;28;20472;-75
2022/07/12 15:56:07;;;;;;;1.87;0.70;;;25.40;75.40;;;;;;5048421;28;20191;-75
2022/07/12 15:58:37;;;;;;;7.23;0.90;;;25.70;77.30;;;;;;5050915;28;20421;-74
2022/07/12 16:01:04;;;;;;;3.53;0.70;;;26.00;78.20;;;;;;5045092;28;20437;-75
2022/07/12 16:03:30;;;;;;;2.50;0.93;;;25.80;75.40;;;;;;5032900;28;20422;-75
2022/07/12 16:05:58;;;;;;;6.50;0.90;;;25.60;78.00;;;;;;5043623;28;20414;-74
2022/07/12 16:08:24;;;;;;;1.77;0.80;;;25.10;74.60;;;;;;5042360;28;20203;-75
2022/07/12 16:10:50;;;;;;;1.53;0.70;;;25.20;74.90;;;;;;5040821;28;20470;-75
2022/07/12 16:13:15;;;;;;;1.10;0.77;;;25.00;75.50;;;;;;5040852;28;20172;-74
2022/07/12 16:15:41;;;;;;;6.73;1.10;;;24.80;79.40;;;;;;5032506;28;20184;-75
2022/07/12 16:18:07;;;;;;;1.03;0.77;;;24.80;78.30;;;;;;5032259;28;20168;-75
2022/07/12 16:20:33;;;;;;;7.87;0.90;;;24.90;77.60;;;;;;5048978;28;20670;-75
2022/07/12 16:23:00;;;;;;;2.23;1.00;;;24.70;77.60;;;;;;5052604;28;20167;-75
2022/07/12 16:25:25;;;;;;;2.30;0.80;;;24.30;75.70;;;;;;5049143;28;20838;-75
2022/07/12 16:27:53;;;;;;;2.60;1.00;;;24.20;79.60;;;;;;5051862;28;20445;-74
2022/07/12 16:30:19;;;;;;;999.63;677.53;;;24.20;77.60;;;;;;5052225;28;20164;-75
2022/07/12 16:32:44;;;;;;;1108.13;592.03;;;24.20;76.90;;;;;;5044738;28;20446;-75
2022/07/12 16:35:10;;;;;;;260.73;232.43;;;24.20;77.90;;;;;;5043258;28;20172;-75
2022/07/12 16:37:35;;;;;;;61.27;55.67;;;24.30;77.90;;;;;;5038550;28;20187;-75
2022/07/12 16:40:01;;;;;;;19.53;15.20;;;24.40;77.90;;;;;;5055855;28;20700;-75
2022/07/12 16:42:27;;;;;;;1.83;1.00;;;24.40;78.10;;;;;;5072130;28;20215;-75
2022/07/12 16:44:53;;;;;;;4.10;0.77;;;24.30;75.20;;;;;;5064123;28;20441;-76
2022/07/12 16:47:19;;;;;;;3.17;0.90;;;24.10;75.90;;;;;;5043137;28;20179;-76
2022/07/12 16:49:44;;;;;;;2.10;0.93;;;23.70;78.50;;;;;;5032375;28;20417;-78
2022/07/12 17:38:46;;;;;;;2.60;0.77;;;23.10;81.70;;;;;;5095556;22;20496;-74
2022/07/12 17:41:12;;;;;;;3.63;1.00;;;22.80;81.60;;;;;;5052534;28;20481;-75
2022/07/12 17:43:38;;;;;;;1.63;0.73;;;22.70;81.70;;;;;;5035493;28;20557;-74
2022/07/12 17:46:03;;;;;;;3.97;0.70;;;22.40;82.10;;;;;;5018043;28;20634;-76